createdAt,value
2023-04-07T00:01:25.029Z,3.16
2023-04-07T00:03:54.392Z,3.21
2023-04-07T00:06:23.469Z,3.38
2023-04-07T00:08:53.876Z,3.45
2023-04-07T00:11:22.461Z,3.50
2023-04-07T00:13:51.147Z,3.41
2023-04-07T00:16:20.161Z,3.50
2023-04-07T00:18:49.144Z,3.46
2023-04-07T00:21:18.030Z,3.39
2023-04-07T00:23:47.139Z,3.25
2023-04-07T00:26:17.445Z,3.24
2023-04-07T00:28:46.464Z,3.37
2023-04-07T00:31:15.664Z,3.42
2023-04-07T00:33:44.599Z,3.46
2023-04-07T00:36:13.430Z,3.43
2023-04-07T00:38:42.473Z,3.28
2023-04-07T00:41:11.570Z,3.49
2023-04-07T00:43:41.728Z,3.59
2023-04-07T00:46:11.826Z,3.71
2023-04-07T00:48:40.838Z,3.80
2023-04-07T00:51:09.851Z,3.78
2023-04-07T00:53:38.887Z,3.88
2023-04-07T00:56:08.596Z,3.83
2023-04-07T00:58:37.528Z,3.56
2023-04-07T01:01:10.859Z,3.90
2023-04-07T01:03:47.051Z,3.88
2023-04-07T01:06:17.762Z,3.94
2023-04-07T01:08:52.566Z,3.83
2023-04-07T01:11:26.117Z,3.74
2023-04-07T01:13:56.878Z,3.78
2023-04-07T01:16:53.704Z,3.95
2023-04-07T01:19:35.145Z,3.95
2023-04-07T01:22:05.650Z,3.92
2023-04-07T01:24:43.692Z,3.90
2023-04-07T01:27:22.890Z,4.12
2023-04-07T01:29:54.210Z,4.05
2023-04-07T01:32:24.283Z,4.04
2023-04-07T01:34:55.108Z,4.08
2023-04-07T01:37:24.455Z,4.13
2023-04-07T01:39:55.073Z,4.10
2023-04-07T01:42:24.378Z,4.14
2023-04-07T01:44:54.859Z,4.06
2023-04-07T01:47:24.313Z,4.14
2023-04-07T01:49:53.792Z,4.02
2023-04-07T01:52:23.188Z,4.00
2023-04-07T01:54:52.282Z,4.00
2023-04-07T01:57:21.318Z,4.02
2023-04-07T01:59:56.399Z,4.12
2023-04-07T02:02:27.807Z,4.23
2023-04-07T02:04:57.719Z,4.27
2023-04-07T02:07:31.261Z,4.23
2023-04-07T02:10:02.121Z,4.25
2023-04-07T02:12:31.841Z,4.32
2023-04-07T02:15:12.787Z,4.37
2023-04-07T02:17:49.721Z,4.55
2023-04-07T02:20:19.052Z,4.40
2023-04-07T02:22:47.988Z,4.28
2023-04-07T02:25:24.035Z,4.26
2023-04-07T02:27:52.972Z,4.29
2023-04-07T02:30:23.541Z,4.36
2023-04-07T02:32:53.390Z,4.43
2023-04-07T02:35:22.599Z,4.48
2023-04-07T02:37:51.570Z,4.54
2023-04-07T02:40:20.534Z,4.51
2023-04-07T02:42:49.722Z,4.58
2023-04-07T02:45:18.778Z,4.50
2023-04-07T02:47:49.336Z,4.55
2023-04-07T02:50:20.176Z,4.56
2023-04-07T02:52:48.694Z,4.44
2023-04-07T02:55:18.634Z,4.51
2023-04-07T02:57:47.800Z,4.59
2023-04-07T03:00:35.108Z,4.80
2023-04-07T03:03:18.785Z,4.83
2023-04-07T03:06:07.458Z,4.81
2023-04-07T03:08:42.347Z,4.70
2023-04-07T03:11:11.204Z,4.59
2023-04-07T03:13:40.399Z,4.57
2023-04-07T03:16:09.458Z,4.74
2023-04-07T03:18:49.095Z,4.83
2023-04-07T03:21:18.870Z,4.86
2023-04-07T03:23:47.775Z,4.93
2023-04-07T03:26:16.761Z,4.99
2023-04-07T03:28:45.288Z,4.82
2023-04-07T03:31:15.617Z,5.01
2023-04-07T03:33:44.645Z,5.05
2023-04-07T03:36:15.312Z,5.14
2023-04-07T03:38:44.272Z,5.12
2023-04-07T03:41:14.399Z,5.02
2023-04-07T03:43:43.154Z,4.90
2023-04-07T03:46:13.194Z,5.11
2023-04-07T03:48:42.243Z,5.14
2023-04-07T03:51:14.532Z,5.25
2023-04-07T03:53:43.550Z,5.11
2023-04-07T03:56:32.810Z,5.11
2023-04-07T03:59:01.757Z,5.12
2023-04-07T04:01:35.022Z,5.25
2023-04-07T04:04:11.872Z,5.23
2023-04-07T04:06:42.558Z,5.20
2023-04-07T04:09:34.243Z,5.23
2023-04-07T04:12:03.458Z,5.39
2023-04-07T04:14:33.683Z,5.34
2023-04-07T04:17:05.418Z,5.34
2023-04-07T04:19:45.110Z,5.42
2023-04-07T04:22:24.813Z,5.53
2023-04-07T04:24:56.819Z,5.42
2023-04-07T04:27:27.718Z,5.37
2023-04-07T04:30:05.092Z,5.26
2023-04-07T04:32:41.622Z,5.36
2023-04-07T04:35:11.445Z,5.39
2023-04-07T04:37:50.406Z,5.45
2023-04-07T04:40:19.670Z,5.54
2023-04-07T04:42:50.821Z,5.27
2023-04-07T04:45:21.975Z,5.22
2023-04-07T04:47:52.153Z,5.39
2023-04-07T04:50:21.312Z,5.42
2023-04-07T04:52:52.306Z,5.46
2023-04-07T04:55:24.633Z,5.26
2023-04-07T04:57:55.392Z,5.36
2023-04-07T05:00:34.374Z,5.37
2023-04-07T05:03:07.202Z,5.31
2023-04-07T05:05:40.297Z,5.44
2023-04-07T05:08:12.772Z,5.46
2023-04-07T05:10:42.160Z,5.43
2023-04-07T05:13:15.672Z,5.49
2023-04-07T05:15:44.641Z,5.63
2023-04-07T05:18:16.446Z,5.60
2023-04-07T05:20:45.713Z,5.71
2023-04-07T05:23:16.739Z,5.72
2023-04-07T05:25:48.314Z,5.73
2023-04-07T05:28:17.460Z,5.82
2023-04-07T05:30:46.509Z,5.89
2023-04-07T05:33:15.871Z,5.90
2023-04-07T05:35:49.060Z,5.89
2023-04-07T05:38:19.371Z,6.04
2023-04-07T05:40:48.415Z,5.81
2023-04-07T05:43:25.497Z,6.01
2023-04-07T05:45:54.726Z,6.06
2023-04-07T05:48:24.750Z,6.24
2023-04-07T05:50:55.018Z,6.09
2023-04-07T05:53:25.658Z,6.16
2023-04-07T05:55:54.541Z,6.29
2023-04-07T05:58:46.342Z,6.42
2023-04-07T06:01:16.599Z,6.55
2023-04-07T06:03:45.686Z,6.75
2023-04-07T06:06:21.633Z,6.75
2023-04-07T06:08:52.248Z,6.80
2023-04-07T06:11:21.436Z,6.66
2023-04-07T06:13:50.368Z,6.74
2023-04-07T06:16:19.924Z,6.80
2023-04-07T06:18:49.019Z,6.84
2023-04-07T06:21:18.015Z,6.85
2023-04-07T06:23:47.466Z,6.88
2023-04-07T06:26:18.000Z,6.67
2023-04-07T06:28:46.882Z,6.19
2023-04-07T06:31:16.797Z,6.38
2023-04-07T06:33:45.857Z,6.55
2023-04-07T06:36:15.648Z,6.56
2023-04-07T06:38:44.748Z,6.47
2023-04-07T06:41:17.081Z,6.43
2023-04-07T06:43:49.488Z,6.49
2023-04-07T06:46:18.947Z,6.78
2023-04-07T06:48:47.912Z,6.74
2023-04-07T06:51:16.820Z,6.78
2023-04-07T06:53:47.722Z,6.95
2023-04-07T06:56:16.769Z,7.11
2023-04-07T06:58:46.682Z,7.23
2023-04-07T07:01:15.404Z,7.47
2023-04-07T07:03:44.420Z,7.59
2023-04-07T07:06:13.417Z,7.72
2023-04-07T07:08:42.290Z,7.96
2023-04-07T07:11:11.466Z,7.91
2023-04-07T07:13:39.892Z,8.31
2023-04-07T07:16:10.327Z,8.62
2023-04-07T07:18:39.324Z,8.57
2023-04-07T07:21:08.215Z,8.49
2023-04-07T07:23:37.225Z,8.59
2023-04-07T07:26:06.161Z,8.13
2023-04-07T07:28:34.753Z,8.27
2023-04-07T07:31:13.320Z,8.38
2023-04-07T07:33:44.269Z,8.57
2023-04-07T07:36:13.687Z,8.39
2023-04-07T07:38:42.589Z,8.46
2023-04-07T07:41:11.494Z,8.46
2023-04-07T07:43:40.027Z,8.42
2023-04-07T07:46:08.972Z,8.14
2023-04-07T07:48:39.329Z,8.30
2023-04-07T07:51:07.995Z,8.00
2023-04-07T07:53:36.820Z,8.31
2023-04-07T07:56:05.915Z,8.23
2023-04-07T07:58:34.861Z,8.60
2023-04-07T08:01:03.947Z,8.45
2023-04-07T08:03:33.242Z,8.77
2023-04-07T08:06:03.764Z,9.11
2023-04-07T08:08:32.364Z,9.16
2023-04-07T08:11:01.379Z,9.31
2023-04-07T08:13:29.958Z,9.30
2023-04-07T08:15:59.006Z,9.42
2023-04-07T08:18:28.159Z,9.72
2023-04-07T08:20:57.686Z,10.24
2023-04-07T08:23:28.024Z,10.58
2023-04-07T08:25:56.596Z,10.60
2023-04-07T08:28:25.961Z,10.49
2023-04-07T08:30:54.901Z,10.65
2023-04-07T08:33:24.629Z,10.59
2023-04-07T08:35:53.679Z,10.72
2023-04-07T08:38:22.608Z,10.76
2023-04-07T08:41:02.678Z,10.78
2023-04-07T08:43:31.969Z,10.41
2023-04-07T08:46:01.629Z,10.28
2023-04-07T08:48:34.106Z,10.16
2023-04-07T08:51:06.728Z,10.05
2023-04-07T08:53:39.754Z,10.16
2023-04-07T08:56:10.780Z,10.37
2023-04-07T08:58:39.540Z,10.38
2023-04-07T09:01:08.781Z,10.37
2023-04-07T09:03:38.231Z,10.43
2023-04-07T09:06:07.447Z,10.46
2023-04-07T09:08:36.387Z,10.97
2023-04-07T09:11:05.813Z,11.29
2023-04-07T09:13:35.890Z,11.27
2023-04-07T09:16:05.130Z,11.06
2023-04-07T09:18:34.301Z,10.68
2023-04-07T09:21:04.426Z,10.82
2023-04-07T09:23:34.853Z,10.80
2023-04-07T09:26:22.168Z,10.42
2023-04-07T09:28:54.583Z,10.65
2023-04-07T09:31:26.338Z,10.61
2023-04-07T09:33:55.641Z,10.55
2023-04-07T09:36:27.214Z,10.62
2023-04-07T09:38:56.225Z,10.67
2023-04-07T09:41:25.239Z,10.48
2023-04-07T09:43:58.407Z,10.68
2023-04-07T09:46:28.219Z,10.69
2023-04-07T09:49:05.147Z,10.47
2023-04-07T09:51:34.675Z,10.53
2023-04-07T09:54:03.917Z,10.58
2023-04-07T09:56:32.890Z,10.47
2023-04-07T09:59:03.632Z,10.53
2023-04-07T10:01:32.478Z,10.47
2023-04-07T10:04:01.892Z,10.51
2023-04-07T10:06:30.982Z,10.76
2023-04-07T10:08:59.937Z,10.63
2023-04-07T10:11:30.457Z,10.92
2023-04-07T10:13:59.403Z,10.64
2023-04-07T10:16:29.524Z,11.24
2023-04-07T10:18:58.673Z,11.35
2023-04-07T10:21:27.964Z,11.43
2023-04-07T10:24:01.760Z,11.62
2023-04-07T10:26:32.151Z,11.82
2023-04-07T10:29:01.922Z,11.86
2023-04-07T10:31:32.129Z,11.69
2023-04-07T10:34:02.793Z,11.61
2023-04-07T10:36:31.894Z,11.58
2023-04-07T10:39:25.307Z,11.25
2023-04-07T10:41:54.322Z,11.54
2023-04-07T10:44:50.537Z,11.73
2023-04-07T10:47:20.609Z,11.80
2023-04-07T10:50:07.509Z,11.81
2023-04-07T10:52:36.504Z,12.04
2023-04-07T10:55:34.456Z,12.06
2023-04-07T10:58:25.333Z,12.00
2023-04-07T11:01:21.446Z,12.19
2023-04-07T11:04:00.095Z,12.10
2023-04-07T11:06:29.286Z,12.18
2023-04-07T11:08:58.200Z,12.36
2023-04-07T11:11:43.120Z,12.47
2023-04-07T11:14:11.786Z,12.26
2023-04-07T11:16:42.956Z,12.03
2023-04-07T11:19:13.936Z,12.07
2023-04-07T11:21:42.932Z,11.89
2023-04-07T11:24:12.060Z,12.05
2023-04-07T11:26:42.710Z,12.39
2023-04-07T11:29:13.094Z,12.26
2023-04-07T11:31:41.725Z,12.42
2023-04-07T11:34:12.341Z,12.46
2023-04-07T11:36:43.423Z,12.26
2023-04-07T11:39:22.348Z,11.98
2023-04-07T11:41:52.099Z,11.88
2023-04-07T11:44:21.078Z,11.69
2023-04-07T11:46:56.617Z,11.69
2023-04-07T11:49:28.320Z,11.58
2023-04-07T11:52:01.876Z,11.31
2023-04-07T11:54:41.706Z,11.36
2023-04-07T11:57:13.010Z,11.40
2023-04-07T11:59:42.574Z,11.42
2023-04-07T12:02:11.543Z,11.48
2023-04-07T12:04:57.472Z,11.47
2023-04-07T12:07:28.351Z,11.27
2023-04-07T12:09:58.079Z,11.00
2023-04-07T12:12:28.539Z,10.65
2023-04-07T12:14:58.424Z,10.62
2023-04-07T12:17:28.405Z,10.45
2023-04-07T12:19:58.555Z,10.46
2023-04-07T12:22:27.432Z,10.43
2023-04-07T12:24:56.435Z,10.89
2023-04-07T12:27:39.618Z,11.23
2023-04-07T12:30:11.584Z,11.81
2023-04-07T12:32:40.556Z,12.05
2023-04-07T12:35:11.047Z,12.16
2023-04-07T12:37:39.554Z,12.61
2023-04-07T12:40:09.739Z,12.45
2023-04-07T12:42:38.642Z,12.34
2023-04-07T12:45:08.482Z,12.07
2023-04-07T12:47:40.358Z,11.89
2023-04-07T12:50:11.582Z,12.34
2023-04-07T12:52:40.278Z,12.18
2023-04-07T12:55:09.622Z,12.32
2023-04-07T12:57:38.961Z,13.22
2023-04-07T13:00:10.079Z,12.63
2023-04-07T13:02:39.201Z,12.82
2023-04-07T13:05:08.625Z,12.39
2023-04-07T13:07:38.558Z,12.20
2023-04-07T13:10:09.406Z,11.76
2023-04-07T13:12:40.025Z,11.44
2023-04-07T13:15:09.461Z,11.50
2023-04-07T13:17:38.903Z,11.58
2023-04-07T13:20:09.144Z,11.47
2023-04-07T13:22:48.789Z,11.62
2023-04-07T13:25:20.858Z,11.72
2023-04-07T13:27:49.876Z,11.40
2023-04-07T13:30:20.848Z,11.12
2023-04-07T13:32:51.199Z,11.22
2023-04-07T13:35:20.520Z,11.24
2023-04-07T13:37:50.548Z,11.15
2023-04-07T13:40:19.140Z,10.78
2023-04-07T13:42:48.176Z,10.68
2023-04-07T13:45:17.014Z,10.67
2023-04-07T13:47:46.339Z,10.54
2023-04-07T13:50:15.998Z,10.54
2023-04-07T13:52:44.622Z,11.10
2023-04-07T13:55:16.167Z,11.41
2023-04-07T13:57:45.101Z,11.73
2023-04-07T14:00:15.610Z,11.72
2023-04-07T14:02:46.005Z,11.87
2023-04-07T14:05:15.061Z,11.97
2023-04-07T14:07:43.477Z,11.96
2023-04-07T14:10:14.716Z,12.19
2023-04-07T14:12:43.373Z,12.83
2023-04-07T14:15:12.338Z,13.40
2023-04-07T14:17:41.295Z,12.78
2023-04-07T14:20:10.804Z,12.98
2023-04-07T14:22:39.397Z,13.42
2023-04-07T14:25:09.096Z,13.56
2023-04-07T14:27:39.575Z,13.54
2023-04-07T14:30:09.738Z,13.19
2023-04-07T14:32:38.893Z,11.76
2023-04-07T14:35:08.812Z,11.23
2023-04-07T14:37:37.285Z,10.38
2023-04-07T14:40:07.511Z,10.17
2023-04-07T14:42:37.059Z,9.91
2023-04-07T14:45:08.413Z,8.62
2023-04-07T14:47:37.379Z,9.08
2023-04-07T14:50:07.179Z,9.42
2023-04-07T14:52:37.239Z,9.77
2023-04-07T14:55:06.237Z,10.07
2023-04-07T14:57:35.166Z,9.85
2023-04-07T15:00:07.625Z,9.92
2023-04-07T15:02:37.259Z,10.14
2023-04-07T15:05:06.868Z,10.40
2023-04-07T15:07:35.515Z,10.34
2023-04-07T15:10:04.453Z,10.22
2023-04-07T15:12:33.570Z,9.89
2023-04-07T15:15:02.459Z,9.71
2023-04-07T15:17:43.160Z,10.03
2023-04-07T15:20:13.513Z,9.88
2023-04-07T15:22:42.194Z,9.98
2023-04-07T15:25:11.132Z,9.85
2023-04-07T15:27:40.176Z,9.72
2023-04-07T15:30:10.118Z,9.83
2023-04-07T15:32:40.433Z,10.01
2023-04-07T15:35:09.525Z,9.99
2023-04-07T15:37:38.628Z,10.16
2023-04-07T15:40:09.209Z,9.78
2023-04-07T15:42:41.749Z,9.67
2023-04-07T15:45:11.919Z,9.74
2023-04-07T15:47:42.453Z,9.91
2023-04-07T15:50:12.306Z,10.07
2023-04-07T15:52:40.833Z,10.27
2023-04-07T15:55:10.788Z,10.21
2023-04-07T15:57:39.813Z,10.04
2023-04-07T16:00:09.941Z,9.74
2023-04-07T16:02:39.396Z,9.61
2023-04-07T16:05:10.052Z,9.57
2023-04-07T16:07:38.732Z,9.61
2023-04-07T16:10:09.036Z,9.31
2023-04-07T16:12:38.105Z,9.40
2023-04-07T16:15:09.910Z,9.33
2023-04-07T16:17:40.522Z,9.43
2023-04-07T16:20:14.741Z,9.32
2023-04-07T16:22:43.968Z,9.23
2023-04-07T16:25:13.038Z,9.16
2023-04-07T16:27:42.068Z,9.22
2023-04-07T16:30:13.854Z,9.19
2023-04-07T16:32:44.668Z,9.17
2023-04-07T16:35:16.079Z,9.10
2023-04-07T16:37:46.369Z,8.94
2023-04-07T16:40:16.235Z,8.84
2023-04-07T16:42:45.226Z,8.59
2023-04-07T16:45:14.343Z,8.38
2023-04-07T16:47:44.648Z,8.31
2023-04-07T16:50:14.745Z,8.44
2023-04-07T16:52:43.300Z,8.32
2023-04-07T16:55:12.529Z,8.30
2023-04-07T16:57:41.437Z,8.17
2023-04-07T17:00:11.545Z,8.06
2023-04-07T17:02:40.618Z,7.79
2023-04-07T17:05:10.557Z,7.59
2023-04-07T17:07:40.603Z,7.73
2023-04-07T17:10:11.545Z,7.37
2023-04-07T17:12:40.466Z,7.32
2023-04-07T17:15:10.054Z,7.39
2023-04-07T17:17:39.485Z,7.22
2023-04-07T17:20:09.552Z,7.30
2023-04-07T17:22:38.122Z,7.19
2023-04-07T17:25:12.327Z,7.16
2023-04-07T17:27:41.422Z,6.94
2023-04-07T17:30:11.009Z,6.89
2023-04-07T17:32:40.198Z,6.82
2023-04-07T17:35:10.144Z,6.92
2023-04-07T17:37:39.208Z,6.83
2023-04-07T17:40:11.048Z,6.88
2023-04-07T17:42:40.147Z,7.02
2023-04-07T17:45:10.109Z,7.10
2023-04-07T17:47:39.212Z,6.93
2023-04-07T17:50:09.012Z,6.87
2023-04-07T17:52:37.784Z,7.09
2023-04-07T17:55:08.545Z,7.19
2023-04-07T17:57:38.963Z,7.17
2023-04-07T18:00:08.136Z,7.16
2023-04-07T18:02:43.826Z,7.27
2023-04-07T18:05:13.148Z,7.06
2023-04-07T18:07:42.175Z,7.14
2023-04-07T18:10:11.641Z,7.11
2023-04-07T18:12:42.138Z,6.78
2023-04-07T18:15:11.685Z,6.91
2023-04-07T18:17:41.356Z,7.14
2023-04-07T18:20:11.732Z,6.91
2023-04-07T18:22:40.425Z,6.96
2023-04-07T18:25:10.193Z,7.06
2023-04-07T18:27:39.127Z,7.14
2023-04-07T18:30:10.739Z,6.97
2023-04-07T18:32:39.934Z,7.13
2023-04-07T18:35:09.601Z,7.10
2023-04-07T18:37:38.398Z,7.09
2023-04-07T18:40:08.768Z,7.24
2023-04-07T18:42:37.560Z,7.10
2023-04-07T18:45:08.052Z,7.11
2023-04-07T18:47:39.119Z,6.89
2023-04-07T18:50:09.230Z,7.06
2023-04-07T18:52:37.805Z,6.97
2023-04-07T18:55:09.139Z,6.91
2023-04-07T18:57:40.392Z,6.80
2023-04-07T19:00:10.122Z,6.86
2023-04-07T19:02:44.647Z,6.80
2023-04-07T19:05:14.143Z,6.85
2023-04-07T19:07:42.748Z,6.80
2023-04-07T19:10:11.716Z,6.68
2023-04-07T19:12:40.756Z,6.73
2023-04-07T19:15:11.366Z,6.59
2023-04-07T19:17:41.822Z,6.59
2023-04-07T19:20:11.315Z,6.49
2023-04-07T19:22:39.799Z,6.37
2023-04-07T19:25:09.761Z,6.45
2023-04-07T19:27:39.643Z,6.35
2023-04-07T19:30:09.886Z,6.41
2023-04-07T19:32:39.115Z,6.03
2023-04-07T19:35:10.709Z,6.26
2023-04-07T19:37:40.376Z,6.32
2023-04-07T19:40:10.042Z,6.30
2023-04-07T19:42:39.470Z,6.32
2023-04-07T19:45:09.636Z,6.05
2023-04-07T19:47:39.242Z,6.06
2023-04-07T19:50:11.325Z,6.28
2023-04-07T19:52:40.115Z,6.20
2023-04-07T19:55:10.768Z,6.26
2023-04-07T19:57:40.557Z,6.25
2023-04-07T20:00:10.683Z,5.98
2023-04-07T20:02:50.066Z,5.88
2023-04-07T20:05:20.918Z,5.93
2023-04-07T20:07:49.171Z,5.28
2023-04-07T20:10:18.232Z,5.70
2023-04-07T20:12:47.341Z,5.85
2023-04-07T20:15:16.926Z,5.76
2023-04-07T20:17:48.125Z,5.53
2023-04-07T20:20:17.950Z,5.18
2023-04-07T20:22:47.944Z,5.17
2023-04-07T20:25:17.091Z,5.36
2023-04-07T20:27:49.325Z,5.17
2023-04-07T20:30:18.545Z,5.23
2023-04-07T20:32:47.539Z,5.17
2023-04-07T20:35:16.647Z,5.09
2023-04-07T20:37:45.452Z,5.36
2023-04-07T20:40:16.166Z,5.55
2023-04-07T20:42:46.058Z,5.34
2023-04-07T20:45:14.963Z,5.53
2023-04-07T20:47:44.200Z,5.36
2023-04-07T20:50:13.284Z,5.10
2023-04-07T20:52:43.831Z,5.16
2023-04-07T20:55:13.106Z,4.95
2023-04-07T20:57:43.670Z,4.88
2023-04-07T21:00:13.313Z,5.02
2023-04-07T21:02:42.922Z,5.01
2023-04-07T21:05:12.077Z,5.00
2023-04-07T21:07:40.572Z,5.04
2023-04-07T21:10:10.919Z,4.47
2023-04-07T21:12:39.784Z,4.44
2023-04-07T21:15:11.593Z,4.30
2023-04-07T21:17:40.675Z,4.45
2023-04-07T21:20:10.825Z,4.55
2023-04-07T21:22:40.281Z,4.52
2023-04-07T21:25:09.966Z,4.42
2023-04-07T21:27:39.023Z,4.54
2023-04-07T21:30:10.747Z,4.19
2023-04-07T21:32:39.554Z,4.45
2023-04-07T21:35:09.209Z,4.54
2023-04-07T21:37:37.855Z,4.51
2023-04-07T21:40:07.965Z,4.62
2023-04-07T21:42:36.982Z,4.46
2023-04-07T21:45:07.455Z,4.63
2023-04-07T21:47:37.977Z,4.69
2023-04-07T21:50:08.628Z,4.74
2023-04-07T21:52:37.178Z,4.86
2023-04-07T21:55:07.264Z,4.87
2023-04-07T21:57:37.664Z,4.31
2023-04-07T22:00:08.739Z,4.73
2023-04-07T22:02:45.486Z,4.57
2023-04-07T22:05:14.814Z,4.55
2023-04-07T22:07:45.014Z,4.33
2023-04-07T22:10:14.048Z,4.02
2023-04-07T22:12:43.221Z,4.51
2023-04-07T22:15:13.633Z,4.50
2023-04-07T22:17:42.232Z,4.28
2023-04-07T22:20:13.209Z,4.42
2023-04-07T22:22:42.141Z,4.25
2023-04-07T22:25:11.303Z,4.41
2023-04-07T22:27:40.252Z,4.26
2023-04-07T22:30:11.015Z,4.30
2023-04-07T22:32:41.526Z,4.41
2023-04-07T22:35:12.465Z,4.09
2023-04-07T22:37:40.967Z,4.19
2023-04-07T22:40:10.669Z,4.04
2023-04-07T22:42:40.212Z,4.17
2023-04-07T22:45:10.244Z,4.35
2023-04-07T22:47:39.363Z,4.17
2023-04-07T22:50:09.106Z,4.10
2023-04-07T22:52:39.070Z,4.17
2023-04-07T22:55:08.362Z,4.32
2023-04-07T22:57:37.260Z,4.17
2023-04-07T23:00:07.187Z,4.25
2023-04-07T23:02:36.766Z,4.36
2023-04-07T23:05:07.719Z,4.39
2023-04-07T23:07:36.337Z,4.45
2023-04-07T23:10:09.487Z,4.42
2023-04-07T23:12:39.162Z,4.44
2023-04-07T23:15:08.857Z,4.32
2023-04-07T23:17:38.058Z,4.12
2023-04-07T23:20:08.346Z,4.41
2023-04-07T23:22:36.924Z,4.00
2023-04-07T23:25:08.576Z,3.99
2023-04-07T23:27:37.797Z,4.27
2023-04-07T23:30:07.833Z,4.23
2023-04-07T23:32:36.763Z,4.28
2023-04-07T23:35:06.793Z,4.38
2023-04-07T23:37:35.673Z,4.39
2023-04-07T23:40:04.788Z,4.34
2023-04-07T23:42:35.154Z,4.34
2023-04-07T23:45:03.913Z,4.05
2023-04-07T23:47:32.887Z,4.28
2023-04-07T23:50:02.672Z,4.34
2023-04-07T23:52:31.620Z,4.17
2023-04-07T23:55:00.545Z,4.07
2023-04-07T23:57:29.710Z,4.05
